Time;durP1;ratioP1;P1;durP2;ratioP2;P2;SDS_P1;SDS_P2;PMS_P1;PMS_P2;Temp;Humidity;BMP_temperature;BMP_pressure;BME280_temperature;BME280_humidity;BME280_pressure;Samples;Min_cycle;Max_cycle;Signal;HPM_P1;HPM_P2
2023/07/30 00:02:04;;;;;;;3.80;0.75;;;15.30;99.90;;;;;;5004330;28;20026;-85
2023/07/30 00:04:30;;;;;;;3.20;0.60;;;15.30;99.90;;;;;;5002211;28;20053;-87
2023/07/30 00:06:56;;;;;;;1.85;0.60;;;15.20;99.90;;;;;;5004490;28;20022;-90
2023/07/30 00:09:22;;;;;;;1.83;0.77;;;15.20;99.90;;;;;;5006531;28;20093;-92
2023/07/30 00:11:47;;;;;;;2.03;0.63;;;15.20;99.90;;;;;;5001290;28;20109;-90
2023/07/30 00:14:13;;;;;;;1.75;0.50;;;15.20;99.90;;;;;;5005019;28;20112;-90
2023/07/30 00:16:39;;;;;;;2.53;0.52;;;15.20;99.90;;;;;;4990808;28;20042;-86
2023/07/30 00:19:04;;;;;;;1.30;0.50;;;15.10;99.90;;;;;;5000452;28;20095;-87
2023/07/30 00:21:30;;;;;;;4.63;0.90;;;15.10;99.90;;;;;;5004502;28;20057;-83
2023/07/30 00:23:56;;;;;;;1.77;0.70;;;15.10;99.90;;;;;;5007290;28;20026;-90
2023/07/30 00:26:26;;;;;;;1.63;0.80;;;15.10;99.90;;;;;;4989803;28;20069;-88
2023/07/30 00:28:51;;;;;;;1.38;0.50;;;15.10;99.90;;;;;;5003992;28;20470;-88
2023/07/30 00:31:17;;;;;;;2.47;0.50;;;15.00;99.90;;;;;;5000953;28;20034;-88
2023/07/30 00:33:43;;;;;;;1.45;0.52;;;15.10;99.90;;;;;;4985126;28;20403;-89
2023/07/30 00:36:09;;;;;;;2.47;0.70;;;15.00;99.90;;;;;;4987813;28;20026;-85
2023/07/30 00:38:34;;;;;;;2.08;0.60;;;15.00;99.90;;;;;;4990180;28;20293;-87
2023/07/30 00:41:00;;;;;;;2.60;0.60;;;15.00;99.90;;;;;;5017860;28;20026;-82
2023/07/30 00:43:26;;;;;;;2.28;0.60;;;14.90;99.90;;;;;;5002488;28;20050;-87
2023/07/30 00:45:51;;;;;;;3.70;0.60;;;14.90;99.90;;;;;;5002041;28;20037;-89
2023/07/30 00:48:17;;;;;;;1.90;0.55;;;14.90;99.90;;;;;;4985626;28;20359;-85
2023/07/30 00:50:43;;;;;;;2.42;0.50;;;14.90;99.90;;;;;;5004076;28;20041;-90
2023/07/30 00:53:11;;;;;;;1.77;0.60;;;14.90;99.90;;;;;;4986248;28;20036;-83
2023/07/30 00:55:36;;;;;;;1.23;0.50;;;14.90;99.90;;;;;;5019730;28;20029;-85
2023/07/30 00:58:03;;;;;;;2.30;0.60;;;14.90;99.90;;;;;;5018130;28;20026;-85
2023/07/30 01:00:30;;;;;;;1.40;0.50;;;14.80;99.90;;;;;;4999449;28;20493;-89
2023/07/30 01:02:56;;;;;;;2.33;0.50;;;14.80;99.90;;;;;;5006634;28;20061;-85
2023/07/30 01:05:22;;;;;;;2.60;0.50;;;14.80;99.90;;;;;;5003252;28;20034;-85
2023/07/30 01:07:48;;;;;;;2.25;0.40;;;14.80;99.90;;;;;;5012961;28;20050;-89
2023/07/30 01:10:15;;;;;;;1.55;0.50;;;14.80;99.90;;;;;;5001496;28;20107;-80
2023/07/30 01:12:43;;;;;;;2.08;0.50;;;14.80;99.90;;;;;;5016402;28;20569;-79
2023/07/30 01:15:09;;;;;;;1.77;0.63;;;14.70;99.90;;;;;;4999944;28;20029;-82
2023/07/30 01:17:35;;;;;;;2.03;0.40;;;14.70;99.90;;;;;;4990706;28;20034;-87
2023/07/30 01:20:02;;;;;;;2.25;0.50;;;14.70;99.90;;;;;;5002026;28;20025;-90
2023/07/30 01:22:28;;;;;;;2.80;0.60;;;14.60;99.90;;;;;;5002319;28;20465;-88
2023/07/30 01:24:56;;;;;;;2.50;0.40;;;14.70;99.90;;;;;;4989154;28;20046;-86
2023/07/30 01:27:28;;;;;;;3.45;0.40;;;14.70;99.90;;;;;;5003799;28;20108;-84
2023/07/30 01:30:10;;;;;;;2.17;0.50;;;14.60;99.90;;;;;;5006075;28;20085;-85
2023/07/30 01:32:37;;;;;;;1.20;0.40;;;14.60;99.90;;;;;;4989355;28;20058;-82
2023/07/30 01:35:06;;;;;;;2.85;0.50;;;14.60;99.90;;;;;;5023032;28;20117;-83
2023/07/30 01:37:33;;;;;;;2.20;0.50;;;14.60;99.90;;;;;;5018892;28;20113;-87
2023/07/30 01:40:00;;;;;;;1.70;0.60;;;14.60;99.90;;;;;;5005292;28;20039;-89
2023/07/30 01:42:30;;;;;;;1.55;0.50;;;14.50;99.90;;;;;;5006710;28;20088;-88
2023/07/30 01:44:56;;;;;;;1.83;0.50;;;14.50;99.90;;;;;;4988665;28;20101;-87
2023/07/30 01:47:22;;;;;;;2.28;0.65;;;14.50;99.90;;;;;;4990930;28;20029;-86
2023/07/30 01:49:47;;;;;;;5.03;0.90;;;14.50;99.90;;;;;;4991366;28;20037;-83
2023/07/30 01:52:13;;;;;;;1.55;0.52;;;14.50;99.90;;;;;;4992792;28;20474;-87
2023/07/30 01:54:39;;;;;;;2.75;0.60;;;14.40;99.90;;;;;;5008347;28;20034;-85
2023/07/30 01:57:05;;;;;;;2.55;0.80;;;14.40;99.90;;;;;;5004424;28;20100;-89
2023/07/30 01:59:30;;;;;;;2.92;0.52;;;14.40;99.90;;;;;;5001176;28;20105;-90
2023/07/30 02:01:56;;;;;;;2.10;0.43;;;14.50;99.90;;;;;;4988864;28;20125;-87
2023/07/30 02:04:22;;;;;;;1.77;0.47;;;14.40;99.90;;;;;;5005564;28;20483;-89
2023/07/30 02:06:48;;;;;;;2.35;0.50;;;14.40;99.90;;;;;;5005328;28;20038;-84
2023/07/30 02:09:14;;;;;;;4.70;0.70;;;14.40;99.90;;;;;;5003583;28;20063;-82
2023/07/30 02:11:40;;;;;;;1.88;0.45;;;14.30;99.90;;;;;;4991289;28;20483;-88
2023/07/30 02:14:06;;;;;;;1.85;0.50;;;14.30;99.90;;;;;;5006112;28;20045;-81
2023/07/30 02:16:32;;;;;;;4.15;0.70;;;14.30;99.90;;;;;;4988609;28;20422;-90
2023/07/30 02:18:57;;;;;;;4.70;0.80;;;14.40;99.90;;;;;;4988231;28;20038;-88
2023/07/30 02:21:23;;;;;;;4.70;0.80;;;14.50;99.90;;;;;;5003631;28;20038;-90
2023/07/30 02:23:49;;;;;;;8.65;1.15;;;14.50;99.90;;;;;;5017615;28;20076;-87
2023/07/30 02:26:14;;;;;;;8.13;0.93;;;14.40;99.90;;;;;;4989294;28;20380;-81
2023/07/30 02:28:40;;;;;;;5.88;1.17;;;14.50;99.90;;;;;;4993255;28;20066;-86
2023/07/30 02:31:06;;;;;;;5.40;1.10;;;14.60;99.90;;;;;;4992424;28;20060;-81
2023/07/30 02:33:31;;;;;;;6.97;1.38;;;14.70;99.90;;;;;;5004346;28;20038;-88
2023/07/30 02:35:57;;;;;;;7.53;1.35;;;14.60;99.90;;;;;;4987442;28;20030;-85
2023/07/30 02:38:23;;;;;;;5.35;0.88;;;14.70;99.90;;;;;;5003041;28;20083;-86
2023/07/30 02:40:48;;;;;;;5.13;0.85;;;14.70;99.90;;;;;;4989812;28;20179;-84
2023/07/30 02:43:14;;;;;;;6.65;1.50;;;14.70;99.90;;;;;;4992955;28;20104;-86
2023/07/30 02:45:40;;;;;;;3.50;0.85;;;14.70;99.90;;;;;;4992001;28;20312;-82
2023/07/30 02:48:06;;;;;;;3.40;0.70;;;14.60;99.90;;;;;;5005981;28;20032;-81
2023/07/30 02:50:31;;;;;;;2.20;0.60;;;14.60;99.90;;;;;;5002004;28;20026;-88
2023/07/30 02:52:57;;;;;;;4.43;0.50;;;14.60;99.90;;;;;;5002400;28;20022;-80
2023/07/30 02:55:23;;;;;;;5.28;0.82;;;14.50;99.90;;;;;;4991394;28;20091;-82
2023/07/30 02:57:49;;;;;;;2.85;0.70;;;14.50;99.90;;;;;;5018243;28;20022;-84
2023/07/30 03:00:14;;;;;;;5.95;0.70;;;14.60;99.90;;;;;;4999785;28;20395;-85
2023/07/30 03:02:41;;;;;;;4.22;1.02;;;14.50;99.90;;;;;;4990744;28;20054;-84
2023/07/30 03:05:07;;;;;;;7.63;1.55;;;14.60;99.90;;;;;;5018972;28;20073;-86
2023/07/30 03:07:32;;;;;;;5.78;0.98;;;14.60;99.90;;;;;;5005844;28;20022;-84
2023/07/30 03:09:58;;;;;;;4.75;1.20;;;14.60;99.90;;;;;;4983669;28;20416;-88
2023/07/30 03:12:24;;;;;;;12.13;2.20;;;14.70;99.90;;;;;;4986230;28;20037;-87
2023/07/30 03:14:49;;;;;;;6.57;1.75;;;14.70;99.90;;;;;;4992068;28;20030;-83
2023/07/30 03:17:16;;;;;;;9.20;2.60;;;14.70;99.90;;;;;;5003312;28;20030;-82
2023/07/30 03:19:41;;;;;;;6.15;1.73;;;14.70;99.90;;;;;;5005498;28;20029;-85
2023/07/30 03:22:07;;;;;;;7.10;1.85;;;14.70;99.90;;;;;;4991471;28;20433;-85
2023/07/30 03:24:33;;;;;;;4.13;1.05;;;14.70;99.90;;;;;;5002992;28;20501;-87
2023/07/30 03:26:58;;;;;;;6.35;1.27;;;14.70;99.90;;;;;;5001489;28;20124;-84
2023/07/30 03:29:24;;;;;;;5.90;1.67;;;14.70;99.90;;;;;;4987458;28;20056;-81
2023/07/30 03:31:50;;;;;;;3.58;1.20;;;14.70;99.90;;;;;;5014339;28;20032;-83
2023/07/30 03:34:16;;;;;;;4.88;1.30;;;14.70;99.90;;;;;;4989621;28;20026;-80
2023/07/30 03:36:42;;;;;;;6.55;1.65;;;14.70;99.90;;;;;;5006856;28;20113;-81
2023/07/30 03:39:07;;;;;;;9.27;1.60;;;14.70;99.90;;;;;;5001384;28;20022;-80
2023/07/30 03:41:35;;;;;;;6.82;1.25;;;14.80;99.90;;;;;;5000402;28;20037;-85
2023/07/30 03:44:00;;;;;;;6.40;1.30;;;14.80;99.90;;;;;;5001117;28;20533;-84
2023/07/30 03:46:26;;;;;;;5.15;1.40;;;14.80;99.90;;;;;;4984879;28;20038;-88
2023/07/30 03:48:53;;;;;;;7.55;1.50;;;14.90;99.90;;;;;;5003026;28;20034;-86
2023/07/30 03:51:19;;;;;;;4.30;2.00;;;14.80;99.90;;;;;;4986620;28;20120;-81
2023/07/30 03:53:44;;;;;;;5.43;2.05;;;14.80;99.90;;;;;;4991492;28;20116;-88
2023/07/30 03:56:10;;;;;;;7.07;1.92;;;14.90;99.90;;;;;;4981270;28;20387;-86
2023/07/30 03:58:36;;;;;;;5.65;1.73;;;14.90;99.90;;;;;;5004531;28;20030;-87
2023/07/30 04:01:02;;;;;;;6.10;1.30;;;14.90;99.90;;;;;;4990280;28;20045;-80
2023/07/30 04:03:28;;;;;;;7.88;2.05;;;14.90;99.90;;;;;;4988758;28;20089;-87
2023/07/30 04:05:55;;;;;;;6.40;2.15;;;14.90;99.90;;;;;;4984342;28;20053;-87
2023/07/30 04:08:21;;;;;;;6.72;2.42;;;14.90;99.90;;;;;;5002240;28;20109;-87
2023/07/30 04:10:46;;;;;;;6.93;2.60;;;15.00;99.90;;;;;;4987108;28;20080;-87
2023/07/30 04:13:13;;;;;;;10.55;3.20;;;15.00;99.90;;;;;;4986353;28;20061;-87
2023/07/30 04:15:39;;;;;;;10.18;2.95;;;15.00;99.90;;;;;;4998922;28;20034;-88
2023/07/30 04:18:05;;;;;;;6.25;1.85;;;15.00;99.90;;;;;;5007992;28;20397;-84
2023/07/30 04:20:31;;;;;;;10.05;3.55;;;15.10;99.90;;;;;;5007448;28;20029;-87
2023/07/30 04:22:57;;;;;;;8.15;2.42;;;15.00;99.90;;;;;;5001477;28;20033;-83
2023/07/30 04:25:22;;;;;;;7.22;2.20;;;15.10;99.90;;;;;;4989866;28;20048;-87
2023/07/30 04:27:48;;;;;;;6.80;1.92;;;15.20;99.90;;;;;;4988742;28;20391;-87
2023/07/30 04:30:14;;;;;;;8.30;2.47;;;15.10;99.90;;;;;;4984541;28;20519;-85
2023/07/30 04:32:39;;;;;;;12.52;3.90;;;15.20;99.90;;;;;;5003592;28;20025;-87
2023/07/30 04:35:05;;;;;;;6.93;2.88;;;15.20;99.90;;;;;;5004217;28;20041;-86
2023/07/30 04:37:32;;;;;;;8.63;2.47;;;15.20;99.90;;;;;;5006386;28;20470;-83
2023/07/30 04:39:57;;;;;;;7.35;2.63;;;15.30;99.90;;;;;;4987824;28;20037;-86
2023/07/30 04:42:24;;;;;;;11.57;3.78;;;15.30;99.90;;;;;;5000763;28;20029;-85
2023/07/30 04:44:50;;;;;;;5.72;2.35;;;15.40;99.90;;;;;;5014638;28;20034;-87
2023/07/30 04:47:16;;;;;;;7.82;1.95;;;15.40;99.90;;;;;;4984764;28;20019;-88
2023/07/30 04:49:42;;;;;;;10.40;3.58;;;15.40;99.90;;;;;;4990198;28;20597;-87
2023/07/30 04:52:08;;;;;;;7.50;2.78;;;15.40;99.90;;;;;;5000820;28;20173;-86
2023/07/30 04:54:36;;;;;;;10.27;3.00;;;15.40;99.90;;;;;;5002449;28;20022;-88
2023/07/30 04:57:02;;;;;;;5.88;2.65;;;15.50;99.90;;;;;;5003683;28;20030;-86
2023/07/30 04:59:28;;;;;;;8.65;3.10;;;15.50;99.90;;;;;;5003545;28;20160;-86
2023/07/30 05:01:54;;;;;;;8.82;3.88;;;15.50;99.90;;;;;;4987361;28;20033;-83
2023/07/30 05:04:19;;;;;;;12.27;3.03;;;15.60;99.90;;;;;;5000276;28;20042;-87
2023/07/30 05:06:45;;;;;;;7.28;2.63;;;15.60;99.90;;;;;;5002169;28;20579;-88
2023/07/30 05:09:13;;;;;;;5.70;1.50;;;15.60;99.90;;;;;;4990400;28;20033;-87
2023/07/30 05:11:39;;;;;;;6.82;2.55;;;15.70;99.90;;;;;;5006115;28;20029;-89
2023/07/30 05:14:05;;;;;;;9.77;2.47;;;15.70;99.90;;;;;;4989703;28;20548;-86
2023/07/30 05:16:30;;;;;;;9.52;2.80;;;15.70;99.90;;;;;;4980759;28;20084;-84
2023/07/30 05:18:56;;;;;;;5.50;2.00;;;15.80;99.90;;;;;;4998766;28;20121;-83
2023/07/30 05:21:22;;;;;;;4.40;2.15;;;15.80;99.90;;;;;;4990378;28;20030;-85
2023/07/30 05:23:47;;;;;;;7.55;2.20;;;15.80;99.90;;;;;;5005189;28;20026;-87
2023/07/30 05:26:13;;;;;;;4.05;1.52;;;15.90;99.90;;;;;;5002105;28;20061;-87
2023/07/30 05:28:39;;;;;;;4.65;1.75;;;15.90;99.90;;;;;;4989894;28;20473;-87
2023/07/30 05:31:04;;;;;;;6.88;2.70;;;15.90;99.90;;;;;;4987652;28;20056;-85
2023/07/30 05:33:30;;;;;;;4.13;2.10;;;15.90;99.90;;;;;;5004837;28;20465;-86
2023/07/30 05:35:56;;;;;;;9.93;2.78;;;16.00;99.90;;;;;;5004023;28;20117;-86
2023/07/30 05:38:22;;;;;;;7.25;2.30;;;16.00;99.90;;;;;;5003350;28;20038;-81
2023/07/30 05:40:47;;;;;;;5.75;2.05;;;16.00;99.90;;;;;;4999647;28;20029;-87
2023/07/30 05:43:13;;;;;;;8.13;2.08;;;16.00;99.90;;;;;;4990944;28;20052;-82
2023/07/30 05:45:39;;;;;;;12.90;3.83;;;16.00;99.90;;;;;;4999361;28;20137;-86
2023/07/30 05:48:04;;;;;;;8.05;3.38;;;16.00;99.90;;;;;;4988806;28;20033;-86
2023/07/30 05:50:30;;;;;;;8.15;3.20;;;16.00;99.90;;;;;;4981447;28;20084;-85
2023/07/30 05:52:56;;;;;;;10.05;2.85;;;16.00;99.90;;;;;;5007112;28;20030;-82
2023/07/30 05:55:21;;;;;;;6.65;2.80;;;16.00;99.90;;;;;;4987922;28;20041;-87
2023/07/30 05:57:47;;;;;;;10.90;4.18;;;16.20;99.90;;;;;;4985448;28;20030;-86
2023/07/30 06:00:13;;;;;;;8.75;3.53;;;16.20;99.90;;;;;;5011933;28;20026;-84
2023/07/30 06:02:39;;;;;;;8.48;3.47;;;16.40;99.90;;;;;;5009996;28;20028;-84
2023/07/30 06:05:05;;;;;;;6.63;2.03;;;16.30;99.90;;;;;;5001604;28;20125;-84
2023/07/30 06:07:31;;;;;;;8.40;2.78;;;16.50;99.90;;;;;;5003423;28;20083;-85
2023/07/30 06:09:56;;;;;;;11.43;2.60;;;16.50;99.90;;;;;;5004112;28;20524;-83
2023/07/30 06:12:22;;;;;;;10.50;3.00;;;16.50;99.90;;;;;;4990277;28;20618;-85
2023/07/30 06:14:47;;;;;;;14.00;4.90;;;16.50;99.90;;;;;;4988856;28;20397;-82
2023/07/30 06:17:13;;;;;;;9.07;3.75;;;16.50;99.90;;;;;;5000225;28;20125;-86
2023/07/30 06:19:39;;;;;;;10.30;4.25;;;16.50;99.90;;;;;;4988815;28;20475;-81
2023/07/30 06:22:05;;;;;;;9.80;5.03;;;16.50;99.90;;;;;;5001370;28;20069;-85
2023/07/30 06:24:30;;;;;;;14.90;4.20;;;16.50;99.90;;;;;;4980946;28;20049;-83
2023/07/30 06:26:56;;;;;;;12.40;5.05;;;16.50;99.90;;;;;;5004315;28;20033;-84
2023/07/30 06:29:22;;;;;;;10.38;4.07;;;16.50;99.90;;;;;;5003802;28;20030;-87
2023/07/30 06:31:47;;;;;;;11.38;4.47;;;16.50;99.90;;;;;;4988520;28;20067;-83
2023/07/30 06:34:13;;;;;;;8.23;3.83;;;16.60;99.90;;;;;;4990161;28;20592;-87
2023/07/30 06:36:39;;;;;;;7.68;3.80;;;16.50;99.90;;;;;;5005792;28;20021;-80
2023/07/30 06:39:04;;;;;;;11.55;3.88;;;16.50;99.90;;;;;;4987465;28;20117;-85
2023/07/30 06:41:30;;;;;;;13.88;4.70;;;16.70;99.90;;;;;;5007062;28;20045;-87
2023/07/30 06:43:56;;;;;;;8.77;3.85;;;16.70;99.90;;;;;;5004217;28;20497;-86
2023/07/30 06:46:21;;;;;;;11.07;4.13;;;16.90;99.90;;;;;;5003580;28;20105;-86
2023/07/30 06:48:47;;;;;;;11.30;4.32;;;17.10;99.90;;;;;;4989455;28;20049;-87
2023/07/30 06:51:13;;;;;;;11.82;4.63;;;17.00;99.90;;;;;;4987990;28;20026;-87
2023/07/30 06:53:39;;;;;;;14.85;6.10;;;17.10;99.90;;;;;;4988310;28;20026;-85
2023/07/30 06:56:05;;;;;;;12.65;5.05;;;17.10;99.90;;;;;;4988040;28;20033;-85
2023/07/30 06:58:31;;;;;;;11.85;5.22;;;17.20;99.90;;;;;;5003509;28;20037;-83
2023/07/30 07:00:56;;;;;;;15.43;5.57;;;17.10;99.90;;;;;;4985678;28;20084;-85
2023/07/30 07:03:22;;;;;;;9.70;4.68;;;17.00;99.90;;;;;;4987629;28;20132;-80
2023/07/30 07:05:57;;;;;;;12.07;4.28;;;17.20;99.90;;;;;;5003625;28;20052;-85
2023/07/30 07:08:23;;;;;;;16.70;5.80;;;17.40;99.90;;;;;;5002530;28;20049;-83
2023/07/30 07:10:49;;;;;;;11.98;4.93;;;17.20;99.90;;;;;;4989309;28;20072;-87
2023/07/30 07:13:15;;;;;;;15.98;6.25;;;17.20;99.90;;;;;;5004436;28;20041;-82
2023/07/30 07:15:42;;;;;;;10.32;4.95;;;17.30;99.90;;;;;;5004006;28;20533;-87
2023/07/30 07:18:08;;;;;;;9.45;4.53;;;17.50;99.90;;;;;;5018871;28;20116;-84
2023/07/30 07:20:34;;;;;;;9.07;3.70;;;17.40;99.90;;;;;;5019978;28;20022;-79
2023/07/30 07:22:59;;;;;;;12.63;5.07;;;17.60;99.90;;;;;;5003688;28;20092;-85
2023/07/30 07:25:25;;;;;;;6.88;2.80;;;17.70;99.90;;;;;;5004084;28;20076;-86
2023/07/30 07:27:51;;;;;;;9.93;3.85;;;17.80;99.90;;;;;;4985740;28;20033;-85
2023/07/30 07:30:16;;;;;;;12.15;4.95;;;17.80;99.90;;;;;;4984469;28;20033;-83
2023/07/30 07:32:43;;;;;;;9.10;4.82;;;17.90;99.90;;;;;;5004797;28;20076;-85
2023/07/30 07:35:09;;;;;;;12.10;5.43;;;18.50;99.90;;;;;;4997809;28;20403;-82
2023/07/30 07:37:34;;;;;;;11.20;5.50;;;18.50;99.90;;;;;;4981320;28;20026;-84
2023/07/30 07:40:00;;;;;;;14.57;7.40;;;18.40;99.90;;;;;;5002156;28;20026;-86
2023/07/30 07:42:26;;;;;;;11.07;5.32;;;17.90;99.90;;;;;;5002931;28;20117;-85
2023/07/30 07:44:52;;;;;;;11.48;5.28;;;18.30;99.90;;;;;;4996483;28;20108;-86
2023/07/30 07:47:17;;;;;;;10.45;4.63;;;18.40;99.90;;;;;;5003660;28;20598;-84
2023/07/30 07:49:43;;;;;;;10.00;4.35;;;18.40;99.90;;;;;;5003962;28;20125;-87
2023/07/30 07:52:09;;;;;;;10.40;4.60;;;18.30;99.90;;;;;;4987635;28;20025;-80
2023/07/30 07:54:35;;;;;;;9.93;4.13;;;18.40;99.90;;;;;;5017887;28;20045;-87
2023/07/30 07:57:01;;;;;;;16.50;7.00;;;18.60;99.90;;;;;;4986825;28;20022;-84
2023/07/30 07:59:27;;;;;;;13.30;5.45;;;18.70;99.90;;;;;;4998147;28;20025;-86
2023/07/30 08:01:53;;;;;;;12.50;5.55;;;19.20;99.90;;;;;;4983204;28;20034;-84
2023/07/30 08:04:21;;;;;;;13.07;4.53;;;19.30;99.90;;;;;;4987070;28;20049;-85
2023/07/30 08:06:47;;;;;;;11.75;4.75;;;19.40;99.90;;;;;;4988334;28;20548;-83
2023/07/30 08:09:13;;;;;;;13.68;5.10;;;19.10;99.90;;;;;;4986162;28;20033;-84
2023/07/30 08:11:39;;;;;;;11.23;3.67;;;19.00;99.90;;;;;;5012011;28;20546;-81
2023/07/30 08:14:04;;;;;;;11.93;3.58;;;19.00;99.90;;;;;;4984362;28;20110;-85
2023/07/30 08:16:30;;;;;;;12.60;3.03;;;18.90;99.90;;;;;;4996649;28;20426;-85
2023/07/30 08:18:56;;;;;;;13.43;2.70;;;18.80;99.90;;;;;;4986110;28;20034;-83
2023/07/30 08:21:21;;;;;;;13.77;3.47;;;18.70;99.90;;;;;;4985962;28;20018;-83
2023/07/30 08:23:47;;;;;;;10.15;2.30;;;18.60;99.90;;;;;;5003010;28;20456;-84
2023/07/30 08:26:13;;;;;;;8.20;1.88;;;18.80;99.90;;;;;;4981290;28;20096;-81
2023/07/30 08:28:39;;;;;;;9.93;2.25;;;18.80;99.90;;;;;;5001113;28;20044;-84
2023/07/30 08:31:05;;;;;;;6.20;0.98;;;18.70;99.90;;;;;;4994789;28;20606;-83
2023/07/30 08:33:31;;;;;;;11.75;1.42;;;18.70;99.90;;;;;;4988566;28;20034;-83
2023/07/30 08:35:58;;;;;;;8.07;1.73;;;18.50;99.90;;;;;;5006013;28;20029;-83
2023/07/30 08:38:24;;;;;;;5.60;1.10;;;18.80;99.90;;;;;;4982577;28;20031;-83
2023/07/30 08:40:50;;;;;;;10.18;1.98;;;19.00;99.90;;;;;;5004387;28;20033;-83
2023/07/30 08:43:16;;;;;;;13.73;1.98;;;19.00;99.90;;;;;;5005679;28;20034;-85
2023/07/30 08:45:43;;;;;;;11.30;2.30;;;19.00;99.90;;;;;;5020921;28;20128;-84
2023/07/30 08:48:09;;;;;;;14.68;2.78;;;19.10;99.90;;;;;;4989698;28;20099;-83
2023/07/30 08:50:35;;;;;;;9.50;1.65;;;18.90;99.90;;;;;;4998931;28;20482;-84
2023/07/30 08:53:02;;;;;;;7.57;1.00;;;18.90;99.90;;;;;;5020358;28;20467;-86
2023/07/30 08:55:29;;;;;;;7.75;1.33;;;19.30;99.90;;;;;;4989627;28;20428;-82
2023/07/30 08:57:57;;;;;;;6.07;1.50;;;19.70;99.90;;;;;;5005577;28;20386;-85
2023/07/30 09:00:25;;;;;;;7.00;1.20;;;19.60;99.90;;;;;;5018252;28;20125;-79
2023/07/30 09:02:58;;;;;;;7.32;1.33;;;19.70;99.90;;;;;;5005198;28;20104;-82
2023/07/30 09:05:25;;;;;;;8.68;2.08;;;19.90;99.90;;;;;;5005751;28;20073;-85
2023/07/30 09:07:51;;;;;;;16.15;1.88;;;19.50;99.90;;;;;;5000207;28;20072;-79
2023/07/30 09:10:16;;;;;;;10.25;2.10;;;19.10;99.90;;;;;;4989132;28;20026;-84
2023/07/30 09:12:42;;;;;;;13.13;1.92;;;19.10;99.90;;;;;;4988822;28;20281;-84
2023/07/30 09:15:09;;;;;;;8.18;1.00;;;19.20;99.90;;;;;;5005837;28;20603;-85
2023/07/30 09:17:35;;;;;;;7.32;1.48;;;19.20;99.90;;;;;;5006719;28;20030;-85
2023/07/30 09:20:04;;;;;;;12.13;2.28;;;19.10;99.90;;;;;;5003507;28;20069;-82
2023/07/30 09:22:40;;;;;;;7.95;1.35;;;18.80;99.90;;;;;;5006097;28;20026;-86
2023/07/30 09:25:07;;;;;;;9.40;1.08;;;19.10;99.90;;;;;;4989362;28;20042;-81
2023/07/30 09:27:34;;;;;;;7.40;1.17;;;19.10;99.90;;;;;;5003965;28;21927;-79
2023/07/30 09:30:01;;;;;;;8.48;1.35;;;19.30;99.90;;;;;;5004796;28;20113;-82
2023/07/30 09:32:27;;;;;;;12.98;1.20;;;19.40;99.90;;;;;;5006327;28;20022;-84
2023/07/30 09:34:53;;;;;;;8.57;1.27;;;19.20;99.90;;;;;;5005471;28;20409;-81
2023/07/30 09:37:19;;;;;;;8.80;1.67;;;19.10;99.90;;;;;;5022235;28;20034;-83
2023/07/30 09:39:48;;;;;;;10.70;1.40;;;19.10;99.90;;;;;;5005191;28;20036;-83
2023/07/30 09:42:14;;;;;;;7.95;1.33;;;19.30;99.90;;;;;;5005486;28;20611;-84
2023/07/30 09:44:40;;;;;;;5.82;0.70;;;19.20;99.90;;;;;;5004042;28;20132;-84
2023/07/30 09:47:09;;;;;;;7.13;1.38;;;19.50;99.90;;;;;;5003767;28;20105;-79
2023/07/30 09:49:38;;;;;;;5.10;0.70;;;19.50;99.90;;;;;;5003890;28;20068;-83
2023/07/30 09:52:05;;;;;;;9.27;1.30;;;20.00;99.90;;;;;;5004915;28;20073;-81
2023/07/30 09:54:32;;;;;;;11.00;1.67;;;19.70;99.90;;;;;;5004347;28;20488;-83
2023/07/30 09:56:58;;;;;;;7.47;0.82;;;19.30;99.90;;;;;;4989844;28;20061;-82
2023/07/30 09:59:24;;;;;;;6.90;1.15;;;20.00;99.90;;;;;;4989020;28;20038;-83
2023/07/30 10:01:55;;;;;;;5.05;0.80;;;20.00;99.90;;;;;;5003922;28;20022;-84
2023/07/30 10:04:22;;;;;;;10.23;1.05;;;20.10;99.90;;;;;;5019152;28;20951;-80
2023/07/30 10:07:07;;;;;;;7.65;0.90;;;19.50;99.90;;;;;;4981019;28;20496;-83
2023/07/30 10:09:43;;;;;;;11.63;0.80;;;19.50;99.90;;;;;;4978849;28;20072;-85
2023/07/30 10:12:11;;;;;;;3.90;0.60;;;19.70;99.90;;;;;;5020330;28;20437;-81
2023/07/30 10:14:37;;;;;;;11.32;1.08;;;20.00;99.90;;;;;;5002500;28;20037;-82
2023/07/30 10:17:03;;;;;;;8.52;1.00;;;19.90;99.90;;;;;;4982864;28;20503;-84
2023/07/30 10:19:29;;;;;;;10.82;1.05;;;19.90;99.90;;;;;;5003536;28;20383;-85
2023/07/30 10:22:10;;;;;;;6.70;0.82;;;19.80;99.90;;;;;;5004126;28;20030;-82
2023/07/30 10:24:39;;;;;;;7.95;0.70;;;19.70;99.90;;;;;;4996253;28;20116;-84
2023/07/30 10:27:07;;;;;;;5.93;0.65;;;19.50;99.90;;;;;;4998096;28;20065;-84
2023/07/30 10:29:35;;;;;;;7.90;0.90;;;19.30;99.90;;;;;;4977334;28;20056;-84
2023/07/30 10:32:02;;;;;;;3.50;0.60;;;19.30;99.90;;;;;;4997360;28;20041;-85
2023/07/30 10:34:45;;;;;;;4.38;0.60;;;19.60;99.90;;;;;;5017773;28;20084;-84
2023/07/30 10:37:17;;;;;;;7.75;0.80;;;19.50;99.90;;;;;;5020555;28;20037;-83
2023/07/30 10:39:42;;;;;;;7.50;0.70;;;19.50;99.90;;;;;;4978005;28;20438;-86
2023/07/30 10:42:08;;;;;;;7.60;0.60;;;19.10;99.90;;;;;;4988076;28;20064;-85
2023/07/30 10:44:35;;;;;;;11.07;0.70;;;18.90;99.90;;;;;;4995847;28;20037;-83
2023/07/30 10:47:03;;;;;;;6.47;0.63;;;18.80;99.90;;;;;;5005036;28;20295;-83
2023/07/30 10:49:29;;;;;;;8.27;1.13;;;18.90;99.90;;;;;;4998620;28;20394;-85
2023/07/30 10:51:57;;;;;;;4.10;0.50;;;18.90;99.90;;;;;;5018497;28;20041;-84
2023/07/30 10:54:23;;;;;;;6.20;0.70;;;19.00;99.90;;;;;;4999728;28;20038;-83
2023/07/30 10:56:49;;;;;;;7.05;0.70;;;19.10;99.90;;;;;;4988617;28;20390;-85
2023/07/30 10:59:15;;;;;;;3.45;0.57;;;19.20;99.90;;;;;;5003732;28;20108;-84
2023/07/30 11:01:43;;;;;;;4.20;0.35;;;19.40;99.90;;;;;;5002247;28;20022;-84
2023/07/30 11:04:15;;;;;;;2.63;0.30;;;19.70;99.90;;;;;;5018347;28;20061;-83
2023/07/30 11:06:47;;;;;;;6.85;0.40;;;19.60;99.90;;;;;;5015695;28;20300;-83
2023/07/30 11:09:38;;;;;;;3.67;0.40;;;19.40;99.90;;;;;;5003604;28;20030;-84
2023/07/30 11:12:08;;;;;;;3.53;0.40;;;19.40;99.90;;;;;;5000919;28;20033;-83
2023/07/30 11:14:34;;;;;;;4.82;0.40;;;19.30;99.90;;;;;;5002501;28;20112;-82
2023/07/30 11:17:00;;;;;;;3.58;0.40;;;19.10;99.90;;;;;;4986477;28;20121;-82
2023/07/30 11:19:26;;;;;;;3.75;0.30;;;19.40;99.90;;;;;;4987926;28;20030;-84
2023/07/30 11:21:56;;;;;;;3.88;0.30;;;19.30;99.90;;;;;;4995282;28;20510;-83
2023/07/30 11:24:24;;;;;;;;;;;19.60;99.90;;;;;;5004252;28;20030;-82
2023/07/30 11:27:00;;;;;;;3.13;0.30;;;19.70;99.90;;;;;;5013804;28;19922;-84
2023/07/30 11:29:27;;;;;;;2.92;0.40;;;19.10;99.90;;;;;;5000934;28;20032;-84
2023/07/30 11:31:56;;;;;;;3.65;0.22;;;19.20;99.90;;;;;;5020401;28;20076;-83
2023/07/30 11:34:22;;;;;;;2.92;0.50;;;20.00;99.90;;;;;;5001910;28;20033;-85
2023/07/30 11:36:48;;;;;;;4.13;0.32;;;20.50;99.90;;;;;;5003029;28;20366;-81
2023/07/30 11:39:14;;;;;;;6.15;0.30;;;20.60;99.90;;;;;;5002888;28;20125;-84
2023/07/30 11:41:40;;;;;;;1.95;0.20;;;20.70;99.90;;;;;;5003437;28;20121;-83
2023/07/30 11:44:06;;;;;;;4.57;0.30;;;20.80;99.90;;;;;;5004011;28;20094;-83
2023/07/30 11:46:32;;;;;;;5.82;0.43;;;21.00;99.90;;;;;;5017532;28;20034;-81
2023/07/30 11:49:16;;;;;;;7.78;0.40;;;20.60;99.90;;;;;;5002502;28;20107;-85
2023/07/30 11:51:42;;;;;;;4.93;0.30;;;20.80;99.90;;;;;;5002994;28;20111;-84
2023/07/30 11:54:21;;;;;;;4.22;0.52;;;20.60;99.90;;;;;;5001523;28;20146;-85
2023/07/30 11:56:47;;;;;;;3.78;0.30;;;20.80;99.90;;;;;;5001069;28;20587;-85
2023/07/30 11:59:13;;;;;;;3.13;0.47;;;20.20;99.90;;;;;;5002195;28;20128;-83
2023/07/30 12:01:38;;;;;;;4.90;0.47;;;20.70;99.90;;;;;;5001593;28;20057;-84
2023/07/30 12:04:06;;;;;;;3.65;0.60;;;21.30;99.90;;;;;;5001518;28;20058;-80
2023/07/30 12:07:02;;;;;;;4.50;0.50;;;20.50;99.90;;;;;;4985953;28;20052;-81
2023/07/30 12:09:30;;;;;;;5.60;0.40;;;20.10;99.90;;;;;;4986964;28;20280;-85
2023/07/30 12:11:57;;;;;;;3.15;0.40;;;19.70;99.90;;;;;;4994652;28;20030;-83
2023/07/30 12:14:29;;;;;;;6.70;0.50;;;19.40;99.90;;;;;;4997046;28;20038;-86
2023/07/30 12:16:58;;;;;;;4.05;0.52;;;19.20;99.90;;;;;;5019646;28;20498;-84
2023/07/30 12:19:24;;;;;;;6.57;0.60;;;19.30;99.90;;;;;;4996865;28;20493;-84
2023/07/30 12:21:50;;;;;;;4.82;0.40;;;19.20;99.90;;;;;;4987714;28;20296;-84
2023/07/30 12:24:15;;;;;;;5.57;0.40;;;19.50;99.90;;;;;;4981086;28;20027;-84
2023/07/30 12:26:41;;;;;;;2.38;0.30;;;20.30;99.90;;;;;;4998060;28;20073;-82
2023/07/30 12:29:07;;;;;;;3.35;0.30;;;20.60;99.90;;;;;;4995198;28;20068;-84
2023/07/30 12:31:33;;;;;;;2.72;0.20;;;20.40;99.90;;;;;;5002634;28;20378;-82
2023/07/30 12:33:58;;;;;;;2.58;0.20;;;20.70;99.90;;;;;;4999406;28;20055;-85
2023/07/30 12:36:24;;;;;;;4.82;0.40;;;20.60;99.90;;;;;;5007286;28;20026;-81
2023/07/30 12:38:53;;;;;;;3.55;0.40;;;20.80;99.90;;;;;;5003675;28;20028;-83
2023/07/30 12:41:25;;;;;;;3.83;0.30;;;21.10;99.90;;;;;;5016787;28;20030;-80
2023/07/30 12:43:56;;;;;;;6.93;0.35;;;21.50;99.90;;;;;;4997479;28;20025;-84